sensor_id;sensor_type;location;lat;lon;timestamp;pressure;altitude;pressure_sealevel;temperature;humidity
48636;BME280;34429;52.332;5.614;2023-02-19T00:01:55;101642.50;;;10.94;100.00
48636;BME280;34429;52.332;5.614;2023-02-19T00:04:24;101634.06;;;10.87;100.00
48636;BME280;34429;52.332;5.614;2023-02-19T00:06:52;101636.94;;;10.73;100.00
48636;BME280;34429;52.332;5.614;2023-02-19T00:09:21;101637.34;;;10.79;100.00
48636;BME280;34429;52.332;5.614;2023-02-19T00:11:52;101639.63;;;10.73;100.00
48636;BME280;34429;52.332;5.614;2023-02-19T00:14:23;101638.56;;;10.75;100.00
48636;BME280;34429;52.332;5.614;2023-02-19T00:16:52;101628.88;;;10.73;100.00
48636;BME280;34429;52.332;5.614;2023-02-19T00:19:20;101636.88;;;10.85;100.00
48636;BME280;34429;52.332;5.614;2023-02-19T00:21:50;101636.34;;;10.80;100.00
48636;BME280;34429;52.332;5.614;2023-02-19T00:24:19;101629.75;;;10.84;100.00
48636;BME280;34429;52.332;5.614;2023-02-19T00:26:48;101633.66;;;10.80;100.00
48636;BME280;34429;52.332;5.614;2023-02-19T00:29:20;101647.13;;;10.80;100.00
48636;BME280;34429;52.332;5.614;2023-02-19T00:31:49;101642.97;;;10.87;100.00
48636;BME280;34429;52.332;5.614;2023-02-19T00:34:18;101644.72;;;10.89;100.00
48636;BME280;34429;52.332;5.614;2023-02-19T00:36:46;101643.19;;;10.73;100.00
48636;BME280;34429;52.332;5.614;2023-02-19T00:39:15;101644.31;;;10.82;100.00
48636;BME280;34429;52.332;5.614;2023-02-19T00:41:48;101645.75;;;10.75;100.00
48636;BME280;34429;52.332;5.614;2023-02-19T00:44:20;101641.72;;;10.69;100.00
48636;BME280;34429;52.332;5.614;2023-02-19T00:46:48;101644.97;;;10.61;100.00
48636;BME280;34429;52.332;5.614;2023-02-19T00:49:19;101638.78;;;10.72;100.00
48636;BME280;34429;52.332;5.614;2023-02-19T00:51:48;101645.88;;;10.73;100.00
48636;BME280;34429;52.332;5.614;2023-02-19T00:54:17;101646.59;;;10.64;100.00
48636;BME280;34429;52.332;5.614;2023-02-19T00:56:47;101649.41;;;10.62;100.00
48636;BME280;34429;52.332;5.614;2023-02-19T00:59:15;101657.63;;;10.72;100.00
48636;BME280;34429;52.332;5.614;2023-02-19T01:01:46;101651.25;;;10.73;100.00
48636;BME280;34429;52.332;5.614;2023-02-19T01:04:15;101659.81;;;10.67;100.00
48636;BME280;34429;52.332;5.614;2023-02-19T01:06:43;101656.63;;;10.62;100.00
48636;BME280;34429;52.332;5.614;2023-02-19T01:09:13;101658.78;;;10.57;100.00
48636;BME280;34429;52.332;5.614;2023-02-19T01:11:41;101664.19;;;10.57;100.00
48636;BME280;34429;52.332;5.614;2023-02-19T01:14:10;101658.06;;;10.55;100.00
48636;BME280;34429;52.332;5.614;2023-02-19T01:16:38;101663.16;;;10.46;100.00
48636;BME280;34429;52.332;5.614;2023-02-19T01:19:09;101664.66;;;10.50;100.00
48636;BME280;34429;52.332;5.614;2023-02-19T01:21:39;101661.47;;;10.45;100.00
48636;BME280;34429;52.332;5.614;2023-02-19T01:24:07;101658.66;;;10.47;100.00
48636;BME280;34429;52.332;5.614;2023-02-19T01:26:36;101662.06;;;10.49;100.00
48636;BME280;34429;52.332;5.614;2023-02-19T01:29:04;101666.38;;;10.51;100.00
48636;BME280;34429;52.332;5.614;2023-02-19T01:31:33;101664.75;;;10.49;100.00
48636;BME280;34429;52.332;5.614;2023-02-19T01:34:03;101664.88;;;10.47;100.00
48636;BME280;34429;52.332;5.614;2023-02-19T01:36:33;101667.34;;;10.50;100.00
48636;BME280;34429;52.332;5.614;2023-02-19T01:39:04;101674.81;;;10.47;100.00
48636;BME280;34429;52.332;5.614;2023-02-19T01:41:36;101674.91;;;10.45;100.00
48636;BME280;34429;52.332;5.614;2023-02-19T01:44:06;101672.44;;;10.42;100.00
48636;BME280;34429;52.332;5.614;2023-02-19T01:46:37;101674.91;;;10.45;100.00
48636;BME280;34429;52.332;5.614;2023-02-19T01:49:09;101685.69;;;10.45;100.00
48636;BME280;34429;52.332;5.614;2023-02-19T01:51:47;101671.69;;;10.40;100.00
48636;BME280;34429;52.332;5.614;2023-02-19T01:54:20;101679.06;;;10.49;100.00
48636;BME280;34429;52.332;5.614;2023-02-19T01:56:49;101679.31;;;10.46;100.00
48636;BME280;34429;52.332;5.614;2023-02-19T01:59:18;101673.91;;;10.46;100.00
48636;BME280;34429;52.332;5.614;2023-02-19T02:01:47;101679.03;;;10.38;100.00
48636;BME280;34429;52.332;5.614;2023-02-19T02:04:16;101679.53;;;10.43;100.00
48636;BME280;34429;52.332;5.614;2023-02-19T02:06:50;101683.19;;;10.42;100.00
48636;BME280;34429;52.332;5.614;2023-02-19T02:09:21;101681.84;;;10.37;100.00
48636;BME280;34429;52.332;5.614;2023-02-19T02:12:03;101683.66;;;10.36;100.00
48636;BME280;34429;52.332;5.614;2023-02-19T02:14:33;101678.28;;;10.36;100.00
48636;BME280;34429;52.332;5.614;2023-02-19T02:17:09;101680.44;;;10.31;100.00
48636;BME280;34429;52.332;5.614;2023-02-19T02:22:38;101686.72;;;10.18;100.00
48636;BME280;34429;52.332;5.614;2023-02-19T02:25:32;101682.44;;;10.16;100.00
48636;BME280;34429;52.332;5.614;2023-02-19T02:28:19;101680.06;;;10.11;100.00
48636;BME280;34429;52.332;5.614;2023-02-19T02:30:53;101687.63;;;10.06;100.00
48636;BME280;34429;52.332;5.614;2023-02-19T02:33:27;101687.63;;;10.06;100.00
48636;BME280;34429;52.332;5.614;2023-02-19T02:36:02;101686.94;;;10.15;100.00
48636;BME280;34429;52.332;5.614;2023-02-19T02:38:35;101689.63;;;10.15;100.00
48636;BME280;34429;52.332;5.614;2023-02-19T02:41:05;101692.41;;;10.27;100.00
48636;BME280;34429;52.332;5.614;2023-02-19T02:43:33;101697.53;;;10.30;100.00
48636;BME280;34429;52.332;5.614;2023-02-19T02:46:05;101704.47;;;10.21;100.00
48636;BME280;34429;52.332;5.614;2023-02-19T02:48:35;101695.53;;;10.21;100.00
48636;BME280;34429;52.332;5.614;2023-02-19T02:51:15;101707.81;;;10.25;100.00
48636;BME280;34429;52.332;5.614;2023-02-19T02:53:47;101708.13;;;10.20;100.00
48636;BME280;34429;52.332;5.614;2023-02-19T02:56:30;101700.94;;;10.21;100.00
48636;BME280;34429;52.332;5.614;2023-02-19T02:59:00;101702.63;;;10.22;100.00
48636;BME280;34429;52.332;5.614;2023-02-19T03:01:36;101706.31;;;10.21;100.00
48636;BME280;34429;52.332;5.614;2023-02-19T03:04:24;101708.41;;;10.28;100.00
48636;BME280;34429;52.332;5.614;2023-02-19T03:06:54;101713.19;;;10.25;100.00
48636;BME280;34429;52.332;5.614;2023-02-19T03:09:30;101713.59;;;10.18;100.00
48636;BME280;34429;52.332;5.614;2023-02-19T03:12:06;101718.56;;;10.25;100.00
48636;BME280;34429;52.332;5.614;2023-02-19T03:14:52;101725.38;;;10.17;100.00
48636;BME280;34429;52.332;5.614;2023-02-19T03:17:42;101718.75;;;10.34;100.00
48636;BME280;34429;52.332;5.614;2023-02-19T03:20:31;101724.13;;;10.22;100.00
48636;BME280;34429;52.332;5.614;2023-02-19T03:23:01;101729.97;;;10.15;100.00
48636;BME280;34429;52.332;5.614;2023-02-19T03:25:31;101725.78;;;10.11;100.00
48636;BME280;34429;52.332;5.614;2023-02-19T03:28:16;101729.53;;;10.22;100.00
48636;BME280;34429;52.332;5.614;2023-02-19T03:31:08;101724.59;;;10.15;100.00
48636;BME280;34429;52.332;5.614;2023-02-19T03:33:42;101726.78;;;10.10;100.00
48636;BME280;34429;52.332;5.614;2023-02-19T03:36:13;101734.75;;;10.12;100.00
48636;BME280;34429;52.332;5.614;2023-02-19T03:38:47;101739.34;;;10.10;100.00
48636;BME280;34429;52.332;5.614;2023-02-19T03:41:25;101741.19;;;10.09;100.00
48636;BME280;34429;52.332;5.614;2023-02-19T03:44:05;101739.19;;;10.00;100.00
48636;BME280;34429;52.332;5.614;2023-02-19T03:46:41;101741.88;;;10.00;100.00
48636;BME280;34429;52.332;5.614;2023-02-19T03:49:17;101747.03;;;10.03;100.00
48636;BME280;34429;52.332;5.614;2023-02-19T03:51:52;101746.69;;;9.95;100.00
48636;BME280;34429;52.332;5.614;2023-02-19T03:54:28;101759.69;;;10.01;100.00
48636;BME280;34429;52.332;5.614;2023-02-19T03:57:02;101764.91;;;9.91;100.00
48636;BME280;34429;52.332;5.614;2023-02-19T03:59:39;101762.50;;;9.99;100.00
48636;BME280;34429;52.332;5.614;2023-02-19T04:02:12;101760.03;;;9.96;100.00
48636;BME280;34429;52.332;5.614;2023-02-19T04:04:46;101770.91;;;9.95;100.00
48636;BME280;34429;52.332;5.614;2023-02-19T04:07:16;101769.63;;;9.88;100.00
48636;BME280;34429;52.332;5.614;2023-02-19T04:09:47;101772.31;;;9.88;100.00
48636;BME280;34429;52.332;5.614;2023-02-19T04:12:18;101770.91;;;9.95;100.00
48636;BME280;34429;52.332;5.614;2023-02-19T04:14:51;101777.47;;;9.91;100.00
48636;BME280;34429;52.332;5.614;2023-02-19T04:17:28;101779.06;;;10.06;100.00
48636;BME280;34429;52.332;5.614;2023-02-19T04:20:02;101783.38;;;9.96;100.00
48636;BME280;34429;52.332;5.614;2023-02-19T04:22:34;101784.06;;;9.87;100.00
48636;BME280;34429;52.332;5.614;2023-02-19T04:25:04;101788.03;;;9.94;100.00
48636;BME280;34429;52.332;5.614;2023-02-19T04:27:34;101791.91;;;9.90;100.00
48636;BME280;34429;52.332;5.614;2023-02-19T04:30:04;101791.78;;;9.78;100.00
48636;BME280;34429;52.332;5.614;2023-02-19T04:32:33;101799.34;;;9.73;100.00
48636;BME280;34429;52.332;5.614;2023-02-19T04:35:05;101808.13;;;9.75;100.00
48636;BME280;34429;52.332;5.614;2023-02-19T04:37:34;101809.31;;;9.71;100.00
48636;BME280;34429;52.332;5.614;2023-02-19T04:40:03;101812.22;;;9.68;100.00
48636;BME280;34429;52.332;5.614;2023-02-19T04:42:32;101824.47;;;9.72;100.00
48636;BME280;34429;52.332;5.614;2023-02-19T04:45:00;101830.50;;;9.76;100.00
48636;BME280;34429;52.332;5.614;2023-02-19T04:47:31;101836.63;;;9.65;100.00
48636;BME280;34429;52.332;5.614;2023-02-19T04:50:00;101835.66;;;9.66;100.00
48636;BME280;34429;52.332;5.614;2023-02-19T04:52:31;101847.72;;;9.73;100.00
48636;BME280;34429;52.332;5.614;2023-02-19T04:54:59;101853.09;;;9.73;100.00
48636;BME280;34429;52.332;5.614;2023-02-19T04:57:28;101846.13;;;9.84;100.00
48636;BME280;34429;52.332;5.614;2023-02-19T04:59:56;101839.44;;;9.76;100.00
48636;BME280;34429;52.332;5.614;2023-02-19T05:02:25;101855.56;;;9.76;100.00
48636;BME280;34429;52.332;5.614;2023-02-19T05:04:53;101855.47;;;9.78;100.00
48636;BME280;34429;52.332;5.614;2023-02-19T05:07:22;101860.84;;;9.78;100.00
48636;BME280;34429;52.332;5.614;2023-02-19T05:09:53;101860.94;;;9.76;100.00
48636;BME280;34429;52.332;5.614;2023-02-19T05:12:21;101865.34;;;9.77;100.00
48636;BME280;34429;52.332;5.614;2023-02-19T05:14:50;101859.09;;;9.77;100.00
48636;BME280;34429;52.332;5.614;2023-02-19T05:17:18;101867.06;;;9.78;100.00
48636;BME280;34429;52.332;5.614;2023-02-19T05:19:46;101874.38;;;9.76;100.00
48636;BME280;34429;52.332;5.614;2023-02-19T05:22:15;101873.28;;;9.79;100.00
48636;BME280;34429;52.332;5.614;2023-02-19T05:24:43;101869.44;;;9.70;100.00
48636;BME280;34429;52.332;5.614;2023-02-19T05:27:14;101878.25;;;9.72;100.00
48636;BME280;34429;52.332;5.614;2023-02-19T05:29:44;101886.56;;;9.82;100.00
48636;BME280;34429;52.332;5.614;2023-02-19T05:32:12;101885.69;;;9.81;100.00
48636;BME280;34429;52.332;5.614;2023-02-19T05:34:41;101884.72;;;9.82;100.00
48636;BME280;34429;52.332;5.614;2023-02-19T05:37:09;101886.66;;;9.80;100.00
48636;BME280;34429;52.332;5.614;2023-02-19T05:39:37;101884.81;;;9.81;100.00
48636;BME280;34429;52.332;5.614;2023-02-19T05:42:06;101885.66;;;9.69;100.00
48636;BME280;34429;52.332;5.614;2023-02-19T05:44:37;101882.47;;;9.76;100.00
48636;BME280;34429;52.332;5.614;2023-02-19T05:47:05;101892.03;;;9.80;100.00
48636;BME280;34429;52.332;5.614;2023-02-19T05:49:33;101881.69;;;9.74;100.00
48636;BME280;34429;52.332;5.614;2023-02-19T05:52:02;101891.47;;;9.75;100.00
48636;BME280;34429;52.332;5.614;2023-02-19T05:54:30;101900.72;;;9.71;100.00
48636;BME280;34429;52.332;5.614;2023-02-19T05:56:59;101898.88;;;9.59;100.00
48636;BME280;34429;52.332;5.614;2023-02-19T05:59:27;101902.41;;;9.59;100.00
48636;BME280;34429;52.332;5.614;2023-02-19T06:01:58;101911.84;;;9.52;100.00
48636;BME280;34429;52.332;5.614;2023-02-19T06:04:26;101908.09;;;9.55;100.00
48636;BME280;34429;52.332;5.614;2023-02-19T06:06:55;101914.03;;;9.60;100.00
48636;BME280;34429;52.332;5.614;2023-02-19T06:09:23;101914.22;;;9.57;100.00
48636;BME280;34429;52.332;5.614;2023-02-19T06:11:51;101922.09;;;9.60;100.00
48636;BME280;34429;52.332;5.614;2023-02-19T06:14:20;101930.06;;;9.74;100.00
48636;BME280;34429;52.332;5.614;2023-02-19T06:16:48;101933.59;;;9.62;100.00
48636;BME280;34429;52.332;5.614;2023-02-19T06:19:19;101940.16;;;9.58;100.00
48636;BME280;34429;52.332;5.614;2023-02-19T06:21:48;101932.75;;;9.61;100.00
48636;BME280;34429;52.332;5.614;2023-02-19T06:24:17;101943.63;;;9.60;100.00
48636;BME280;34429;52.332;5.614;2023-02-19T06:26:45;101952.84;;;9.56;100.00
48636;BME280;34429;52.332;5.614;2023-02-19T06:29:15;101950.84;;;9.45;100.00
48636;BME280;34429;52.332;5.614;2023-02-19T06:31:44;101964.59;;;9.40;100.00
48636;BME280;34429;52.332;5.614;2023-02-19T06:34:12;101960.94;;;9.41;100.00
48636;BME280;34429;52.332;5.614;2023-02-19T06:36:43;101948.06;;;9.46;100.00
48636;BME280;34429;52.332;5.614;2023-02-19T06:39:11;101958.84;;;9.59;100.00
48636;BME280;34429;52.332;5.614;2023-02-19T06:41:40;101959.47;;;9.50;100.00
48636;BME280;34429;52.332;5.614;2023-02-19T06:44:08;101972.34;;;9.45;100.00
48636;BME280;34429;52.332;5.614;2023-02-19T06:46:37;101969.81;;;9.56;100.00
48636;BME280;34429;52.332;5.614;2023-02-19T06:49:11;101969.72;;;9.58;100.00
48636;BME280;34429;52.332;5.614;2023-02-19T06:51:39;101975.75;;;9.61;100.00
48636;BME280;34429;52.332;5.614;2023-02-19T06:54:10;101987.19;;;9.51;100.00
48636;BME280;34429;52.332;5.614;2023-02-19T06:56:40;101982.88;;;9.48;100.00
48636;BME280;34429;52.332;5.614;2023-02-19T06:59:11;101990.25;;;9.59;100.00
48636;BME280;34429;52.332;5.614;2023-02-19T07:01:41;101993.38;;;9.65;100.00
48636;BME280;34429;52.332;5.614;2023-02-19T07:07:53;102004.09;;;9.80;100.00
48636;BME280;34429;52.332;5.614;2023-02-19T07:10:24;101993.28;;;9.67;100.00
48636;BME280;34429;52.332;5.614;2023-02-19T07:12:53;102021.56;;;9.60;100.00
48636;BME280;34429;52.332;5.614;2023-02-19T07:15:21;102024.69;;;9.67;100.00
48636;BME280;34429;52.332;5.614;2023-02-19T07:17:49;102019.56;;;9.76;100.00
48636;BME280;34429;52.332;5.614;2023-02-19T07:20:18;102026.56;;;9.52;100.00
48636;BME280;34429;52.332;5.614;2023-02-19T07:22:46;102035.53;;;9.65;100.00
48636;BME280;34429;52.332;5.614;2023-02-19T07:25:14;102036.59;;;9.62;100.00
48636;BME280;34429;52.332;5.614;2023-02-19T07:27:45;102046.81;;;9.57;100.00
48636;BME280;34429;52.332;5.614;2023-02-19T07:30:14;102045.53;;;9.63;100.00
48636;BME280;34429;52.332;5.614;2023-02-19T07:32:42;102047.47;;;9.61;100.00
48636;BME280;34429;52.332;5.614;2023-02-19T07:35:10;102041.03;;;9.63;100.00
48636;BME280;34429;52.332;5.614;2023-02-19T07:37:39;102056.44;;;9.74;100.00
48636;BME280;34429;52.332;5.614;2023-02-19T07:40:08;102058.16;;;9.75;100.00
48636;BME280;34429;52.332;5.614;2023-02-19T07:42:36;102056.00;;;9.68;100.00
48636;BME280;34429;52.332;5.614;2023-02-19T07:45:08;102055.91;;;9.69;100.00
48636;BME280;34429;52.332;5.614;2023-02-19T07:47:36;102062.69;;;9.75;100.00
48636;BME280;34429;52.332;5.614;2023-02-19T07:50:05;102066.75;;;9.68;100.00
48636;BME280;34429;52.332;5.614;2023-02-19T07:52:34;102061.28;;;9.69;100.00
48636;BME280;34429;52.332;5.614;2023-02-19T07:55:03;102068.56;;;9.67;100.00
48636;BME280;34429;52.332;5.614;2023-02-19T07:57:31;102071.63;;;9.75;100.00
48636;BME280;34429;52.332;5.614;2023-02-19T08:00:00;102069.66;;;9.77;100.00
48636;BME280;34429;52.332;5.614;2023-02-19T08:02:31;102076.63;;;9.67;100.00
48636;BME280;34429;52.332;5.614;2023-02-19T08:05:14;102080.94;;;9.70;100.00
48636;BME280;34429;52.332;5.614;2023-02-19T08:07:43;102087.19;;;9.70;100.00
48636;BME280;34429;52.332;5.614;2023-02-19T08:10:11;102098.13;;;9.67;100.00
48636;BME280;34429;52.332;5.614;2023-02-19T08:13:00;102106.47;;;9.77;100.00
48636;BME280;34429;52.332;5.614;2023-02-19T08:15:41;102112.03;;;9.74;100.00
48636;BME280;34429;52.332;5.614;2023-02-19T08:18:13;102114.56;;;9.48;100.00
48636;BME280;34429;52.332;5.614;2023-02-19T08:20:42;102118.53;;;9.42;100.00
48636;BME280;34429;52.332;5.614;2023-02-19T08:23:11;102122.56;;;9.50;100.00
48636;BME280;34429;52.332;5.614;2023-02-19T08:25:40;102135.41;;;9.44;100.00
48636;BME280;34429;52.332;5.614;2023-02-19T08:28:09;102138.59;;;9.51;100.00
48636;BME280;34429;52.332;5.614;2023-02-19T08:30:40;102145.78;;;9.51;100.00
48636;BME280;34429;52.332;5.614;2023-02-19T08:33:14;102146.25;;;9.57;100.00
48636;BME280;34429;52.332;5.614;2023-02-19T08:35:43;102145.28;;;9.58;100.00
48636;BME280;34429;52.332;5.614;2023-02-19T08:38:12;102160.84;;;9.68;100.00
48636;BME280;34429;52.332;5.614;2023-02-19T08:40:41;102162.19;;;9.75;100.00
48636;BME280;34429;52.332;5.614;2023-02-19T08:43:11;102152.28;;;9.61;100.00
48636;BME280;34429;52.332;5.614;2023-02-19T08:45:42;102158.50;;;9.76;100.00
48636;BME280;34429;52.332;5.614;2023-02-19T08:48:14;102153.94;;;9.91;100.00
48636;BME280;34429;52.332;5.614;2023-02-19T08:50:42;102147.28;;;9.84;100.00
48636;BME280;34429;52.332;5.614;2023-02-19T08:53:10;102145.50;;;9.97;100.00
48636;BME280;34429;52.332;5.614;2023-02-19T08:55:39;102156.41;;;9.81;100.00
48636;BME280;34429;52.332;5.614;2023-02-19T08:58:07;102162.28;;;10.00;100.00
48636;BME280;34429;52.332;5.614;2023-02-19T09:00:37;102165.09;;;9.99;100.00
48636;BME280;34429;52.332;5.614;2023-02-19T09:03:05;102166.31;;;9.80;100.00
48636;BME280;34429;52.332;5.614;2023-02-19T09:05:37;102172.44;;;9.68;100.00
48636;BME280;34429;52.332;5.614;2023-02-19T09:08:05;102181.56;;;9.65;100.00
48636;BME280;34429;52.332;5.614;2023-02-19T09:10:34;102191.44;;;9.79;100.00
48636;BME280;34429;52.332;5.614;2023-02-19T09:13:02;102193.00;;;9.84;100.00
48636;BME280;34429;52.332;5.614;2023-02-19T09:15:31;102193.44;;;9.90;100.00
48636;BME280;34429;52.332;5.614;2023-02-19T09:17:59;102193.00;;;9.84;100.00
48636;BME280;34429;52.332;5.614;2023-02-19T09:20:27;102201.81;;;9.86;100.00
48636;BME280;34429;52.332;5.614;2023-02-19T09:22:59;102213.16;;;9.76;100.00
48636;BME280;34429;52.332;5.614;2023-02-19T09:25:28;102217.47;;;9.36;100.00
48636;BME280;34429;52.332;5.614;2023-02-19T09:27:56;102216.16;;;9.57;100.00
48636;BME280;34429;52.332;5.614;2023-02-19T09:30:25;102222.00;;;9.50;100.00
48636;BME280;34429;52.332;5.614;2023-02-19T09:32:53;102247.25;;;9.61;100.00
48636;BME280;34429;52.332;5.614;2023-02-19T09:35:21;102258.09;;;9.45;100.00
48636;BME280;34429;52.332;5.614;2023-02-19T09:37:52;102254.81;;;9.40;100.00
48636;BME280;34429;52.332;5.614;2023-02-19T09:40:23;102255.00;;;9.52;100.00
48636;BME280;34429;52.332;5.614;2023-02-19T09:42:51;102252.53;;;9.49;100.00
48636;BME280;34429;52.332;5.614;2023-02-19T09:45:22;102264.03;;;9.65;100.00
48636;BME280;34429;52.332;5.614;2023-02-19T09:47:53;102263.47;;;9.60;100.00
48636;BME280;34429;52.332;5.614;2023-02-19T09:50:27;102271.97;;;9.38;100.00
48636;BME280;34429;52.332;5.614;2023-02-19T09:53:04;102274.59;;;9.39;100.00
48636;BME280;34429;52.332;5.614;2023-02-19T09:55:38;102287.09;;;9.24;100.00
48636;BME280;34429;52.332;5.614;2023-02-19T09:58:20;102284.66;;;9.36;100.00
48636;BME280;34429;52.332;5.614;2023-02-19T10:00:51;102296.81;;;9.27;100.00
48636;BME280;34429;52.332;5.614;2023-02-19T10:03:24;102308.63;;;8.94;100.00
48636;BME280;34429;52.332;5.614;2023-02-19T10:05:56;102312.75;;;9.30;100.00
48636;BME280;34429;52.332;5.614;2023-02-19T10:08:26;102329.00;;;9.12;100.00
48636;BME280;34429;52.332;5.614;2023-02-19T10:10:58;102334.25;;;9.30;100.00
48636;BME280;34429;52.332;5.614;2023-02-19T10:13:29;102332.56;;;9.13;100.00
48636;BME280;34429;52.332;5.614;2023-02-19T10:16:02;102341.66;;;9.10;100.00
48636;BME280;34429;52.332;5.614;2023-02-19T10:18:38;102338.78;;;9.14;100.00
48636;BME280;34429;52.332;5.614;2023-02-19T10:21:09;102352.84;;;9.19;100.00
48636;BME280;34429;52.332;5.614;2023-02-19T10:23:39;102361.44;;;8.93;100.00
48636;BME280;34429;52.332;5.614;2023-02-19T10:26:11;102367.69;;;8.94;100.00
48636;BME280;34429;52.332;5.614;2023-02-19T10:28:39;102365.16;;;9.07;100.00
48636;BME280;34429;52.332;5.614;2023-02-19T10:31:15;102373.50;;;8.86;100.00
48636;BME280;34429;52.332;5.614;2023-02-19T10:33:51;102372.97;;;8.48;100.00
48636;BME280;34429;52.332;5.614;2023-02-19T10:36:25;102376.75;;;8.44;100.00
48636;BME280;34429;52.332;5.614;2023-02-19T10:38:55;102371.38;;;8.44;100.00
48636;BME280;34429;52.332;5.614;2023-02-19T10:41:26;102377.13;;;8.53;100.00
48636;BME280;34429;52.332;5.614;2023-02-19T10:44:03;102375.94;;;8.75;100.00
48636;BME280;34429;52.332;5.614;2023-02-19T10:46:35;102377.84;;;8.57;100.00
48636;BME280;34429;52.332;5.614;2023-02-19T10:49:18;102370.19;;;8.65;100.00
48636;BME280;34429;52.332;5.614;2023-02-19T10:51:51;102367.97;;;8.73;100.00
48636;BME280;34429;52.332;5.614;2023-02-19T10:54:27;102371.31;;;9.09;100.00
48636;BME280;34429;52.332;5.614;2023-02-19T10:57:15;102364.03;;;8.95;100.00
48636;BME280;34429;52.332;5.614;2023-02-19T10:59:57;102369.53;;;8.77;100.00
48636;BME280;34429;52.332;5.614;2023-02-19T11:02:27;102372.81;;;8.67;100.00
48636;BME280;34429;52.332;5.614;2023-02-19T11:05:05;102376.47;;;8.32;100.00
48636;BME280;34429;52.332;5.614;2023-02-19T11:07:43;102375.72;;;8.46;100.00
48636;BME280;34429;52.332;5.614;2023-02-19T11:10:24;102386.53;;;8.45;100.00
48636;BME280;34429;52.332;5.614;2023-02-19T11:12:58;102386.81;;;8.56;100.00
48636;BME280;34429;52.332;5.614;2023-02-19T11:15:29;102385.88;;;8.57;100.00
48636;BME280;34429;52.332;5.614;2023-02-19T11:18:06;102392.53;;;8.82;100.00
48636;BME280;34429;52.332;5.614;2023-02-19T11:20:38;102400.66;;;9.12;100.00
48636;BME280;34429;52.332;5.614;2023-02-19T11:23:10;102403.41;;;9.42;100.00
48636;BME280;34429;52.332;5.614;2023-02-19T11:25:45;102398.75;;;9.14;100.00
48636;BME280;34429;52.332;5.614;2023-02-19T11:28:29;102394.25;;;9.31;100.00
48636;BME280;34429;52.332;5.614;2023-02-19T11:31:20;102396.00;;;9.00;100.00
48636;BME280;34429;52.332;5.614;2023-02-19T11:33:54;102398.63;;;9.01;100.00
48636;BME280;34429;52.332;5.614;2023-02-19T11:36:28;102403.91;;;9.03;100.00
48636;BME280;34429;52.332;5.614;2023-02-19T11:38:58;102404.44;;;9.40;100.00
48636;BME280;34429;52.332;5.614;2023-02-19T11:41:45;102398.63;;;9.32;100.00
48636;BME280;34429;52.332;5.614;2023-02-19T11:44:33;102411.41;;;9.28;100.00
48636;BME280;34429;52.332;5.614;2023-02-19T11:47:27;102415.22;;;9.08;100.00
48636;BME280;34429;52.332;5.614;2023-02-19T11:50:04;102401.78;;;9.08;100.00
48636;BME280;34429;52.332;5.614;2023-02-19T11:52:41;102395.81;;;9.19;100.00
48636;BME280;34429;52.332;5.614;2023-02-19T11:55:17;102395.47;;;9.25;100.00
48636;BME280;34429;52.332;5.614;2023-02-19T11:57:55;102392.22;;;8.88;100.00
48636;BME280;34429;52.332;5.614;2023-02-19T12:00:34;102403.44;;;9.10;100.00
48636;BME280;34429;52.332;5.614;2023-02-19T12:03:19;102403.44;;;8.79;100.00
48636;BME280;34429;52.332;5.614;2023-02-19T12:06:14;102403.38;;;8.80;100.00
48636;BME280;34429;52.332;5.614;2023-02-19T12:11:48;102396.75;;;9.18;100.00
48636;BME280;34429;52.332;5.614;2023-02-19T12:17:26;102401.19;;;9.79;100.00
48636;BME280;34429;52.332;5.614;2023-02-19T12:20:09;102398.84;;;9.59;100.00
48636;BME280;34429;52.332;5.614;2023-02-19T12:22:44;102392.81;;;9.70;100.00
48636;BME280;34429;52.332;5.614;2023-02-19T12:25:40;102399.06;;;9.70;100.00
48636;BME280;34429;52.332;5.614;2023-02-19T12:28:36;102389.81;;;9.60;100.00
48636;BME280;34429;52.332;5.614;2023-02-19T12:31:23;102384.84;;;9.68;100.00
48636;BME280;34429;52.332;5.614;2023-02-19T12:34:06;102402.69;;;9.39;100.00
48636;BME280;34429;52.332;5.614;2023-02-19T12:36:46;102418.38;;;9.77;100.00
48636;BME280;34429;52.332;5.614;2023-02-19T12:39:25;102417.72;;;10.02;100.00
48636;BME280;34429;52.332;5.614;2023-02-19T12:42:00;102414.28;;;10.00;100.00
48636;BME280;34429;52.332;5.614;2023-02-19T12:44:37;102421.72;;;9.66;100.00
48636;BME280;34429;52.332;5.614;2023-02-19T12:47:16;102431.47;;;9.97;100.00
48636;BME280;34429;52.332;5.614;2023-02-19T12:49:57;102433.03;;;10.02;100.00
48636;BME280;34429;52.332;5.614;2023-02-19T12:52:30;102431.41;;;10.13;100.00
48636;BME280;34429;52.332;5.614;2023-02-19T12:55:16;102416.59;;;10.21;100.00
48636;BME280;34429;52.332;5.614;2023-02-19T12:57:49;102423.59;;;9.94;100.00
48636;BME280;34429;52.332;5.614;2023-02-19T13:00:28;102431.44;;;10.42;100.00
48636;BME280;34429;52.332;5.614;2023-02-19T13:03:01;102428.84;;;10.41;100.00
48636;BME280;34429;52.332;5.614;2023-02-19T13:05:42;102448.31;;;10.30;100.00
48636;BME280;34429;52.332;5.614;2023-02-19T13:08:15;102455.31;;;10.18;100.00
48636;BME280;34429;52.332;5.614;2023-02-19T13:10:52;102455.81;;;10.25;100.00
48636;BME280;34429;52.332;5.614;2023-02-19T13:13:26;102456.09;;;10.06;100.00
48636;BME280;34429;52.332;5.614;2023-02-19T13:15:59;102462.81;;;10.27;100.00
48636;BME280;34429;52.332;5.614;2023-02-19T13:18:33;102462.06;;;10.25;100.00
48636;BME280;34429;52.332;5.614;2023-02-19T13:21:07;102470.91;;;10.27;100.00
48636;BME280;34429;52.332;5.614;2023-02-19T13:23:38;102462.31;;;10.06;100.00
48636;BME280;34429;52.332;5.614;2023-02-19T13:26:42;102459.84;;;10.17;100.00